sensor_id;sensor_type;location;lat;lon;timestamp;P1;durP1;ratioP1;P2;durP2;ratioP2
53115;SDS011;39010;48.088;7.954;2022-07-23T00:01:26;7.45;;;5.50;;
53115;SDS011;39010;48.088;7.954;2022-07-23T00:03:55;8.10;;;5.80;;
53115;SDS011;39010;48.088;7.954;2022-07-23T00:06:22;7.50;;;5.70;;
53115;SDS011;39010;48.088;7.954;2022-07-23T00:08:49;7.55;;;5.40;;
53115;SDS011;39010;48.088;7.954;2022-07-23T00:11:17;8.48;;;5.55;;
53115;SDS011;39010;48.088;7.954;2022-07-23T00:13:44;8.52;;;5.63;;
53115;SDS011;39010;48.088;7.954;2022-07-23T00:16:10;7.90;;;4.97;;
53115;SDS011;39010;48.088;7.954;2022-07-23T00:18:37;6.72;;;4.90;;
53115;SDS011;39010;48.088;7.954;2022-07-23T00:21:04;6.55;;;4.85;;
53115;SDS011;39010;48.088;7.954;2022-07-23T00:23:30;6.72;;;5.20;;
53115;SDS011;39010;48.088;7.954;2022-07-23T00:25:57;8.38;;;5.32;;
53115;SDS011;39010;48.088;7.954;2022-07-23T00:28:24;6.57;;;4.80;;
53115;SDS011;39010;48.088;7.954;2022-07-23T00:30:51;7.88;;;5.30;;
53115;SDS011;39010;48.088;7.954;2022-07-23T00:33:19;6.55;;;5.05;;
53115;SDS011;39010;48.088;7.954;2022-07-23T00:35:46;7.07;;;5.18;;
53115;SDS011;39010;48.088;7.954;2022-07-23T00:38:12;7.97;;;5.28;;
53115;SDS011;39010;48.088;7.954;2022-07-23T00:40:39;7.28;;;5.70;;
53115;SDS011;39010;48.088;7.954;2022-07-23T00:43:05;7.68;;;5.38;;
53115;SDS011;39010;48.088;7.954;2022-07-23T00:45:32;8.73;;;5.40;;
53115;SDS011;39010;48.088;7.954;2022-07-23T00:47:59;7.97;;;5.15;;
53115;SDS011;39010;48.088;7.954;2022-07-23T00:50:26;7.50;;;5.07;;
53115;SDS011;39010;48.088;7.954;2022-07-23T00:52:53;7.82;;;4.93;;
53115;SDS011;39010;48.088;7.954;2022-07-23T00:55:20;7.22;;;5.00;;
53115;SDS011;39010;48.088;7.954;2022-07-23T00:57:47;7.55;;;5.00;;
53115;SDS011;39010;48.088;7.954;2022-07-23T01:00:14;8.80;;;5.45;;
53115;SDS011;39010;48.088;7.954;2022-07-23T01:02:41;7.53;;;4.95;;
53115;SDS011;39010;48.088;7.954;2022-07-23T01:05:08;7.28;;;5.53;;
53115;SDS011;39010;48.088;7.954;2022-07-23T01:07:36;7.50;;;5.60;;
53115;SDS011;39010;48.088;7.954;2022-07-23T01:10:03;10.43;;;5.88;;
53115;SDS011;39010;48.088;7.954;2022-07-23T01:12:51;10.05;;;5.80;;
53115;SDS011;39010;48.088;7.954;2022-07-23T01:15:17;12.80;;;6.57;;
53115;SDS011;39010;48.088;7.954;2022-07-23T01:17:44;11.85;;;7.03;;
53115;SDS011;39010;48.088;7.954;2022-07-23T01:20:10;12.63;;;7.18;;
53115;SDS011;39010;48.088;7.954;2022-07-23T01:22:37;11.77;;;7.45;;
53115;SDS011;39010;48.088;7.954;2022-07-23T01:25:04;12.50;;;7.30;;
53115;SDS011;39010;48.088;7.954;2022-07-23T01:27:31;11.77;;;7.25;;
53115;SDS011;39010;48.088;7.954;2022-07-23T01:30:02;10.85;;;7.78;;
53115;SDS011;39010;48.088;7.954;2022-07-23T01:32:29;14.30;;;7.53;;
53115;SDS011;39010;48.088;7.954;2022-07-23T01:34:56;10.35;;;7.55;;
53115;SDS011;39010;48.088;7.954;2022-07-23T01:37:22;10.80;;;7.07;;
53115;SDS011;39010;48.088;7.954;2022-07-23T01:39:49;9.45;;;6.78;;
53115;SDS011;39010;48.088;7.954;2022-07-23T01:42:16;9.13;;;7.40;;
53115;SDS011;39010;48.088;7.954;2022-07-23T01:44:44;12.95;;;8.13;;
53115;SDS011;39010;48.088;7.954;2022-07-23T01:47:16;14.25;;;8.30;;
53115;SDS011;39010;48.088;7.954;2022-07-23T01:49:43;11.15;;;8.73;;
53115;SDS011;39010;48.088;7.954;2022-07-23T01:52:28;12.18;;;8.88;;
53115;SDS011;39010;48.088;7.954;2022-07-23T01:54:54;12.27;;;8.52;;
53115;SDS011;39010;48.088;7.954;2022-07-23T01:57:21;11.10;;;9.10;;
53115;SDS011;39010;48.088;7.954;2022-07-23T01:59:47;12.50;;;9.32;;
53115;SDS011;39010;48.088;7.954;2022-07-23T02:02:18;12.25;;;8.65;;
53115;SDS011;39010;48.088;7.954;2022-07-23T02:04:45;11.50;;;8.63;;
53115;SDS011;39010;48.088;7.954;2022-07-23T02:07:11;11.23;;;8.63;;
53115;SDS011;39010;48.088;7.954;2022-07-23T02:09:38;12.75;;;9.00;;
53115;SDS011;39010;48.088;7.954;2022-07-23T02:25:42;11.98;;;9.60;;
53115;SDS011;39010;48.088;7.954;2022-07-23T02:28:09;15.23;;;9.52;;
53115;SDS011;39010;48.088;7.954;2022-07-23T02:30:36;12.07;;;8.90;;
53115;SDS011;39010;48.088;7.954;2022-07-23T02:33:05;12.13;;;9.15;;
53115;SDS011;39010;48.088;7.954;2022-07-23T02:35:31;13.90;;;9.88;;
53115;SDS011;39010;48.088;7.954;2022-07-23T02:38:00;11.98;;;8.95;;
53115;SDS011;39010;48.088;7.954;2022-07-23T02:40:28;11.27;;;9.38;;
53115;SDS011;39010;48.088;7.954;2022-07-23T02:42:55;14.25;;;9.60;;
53115;SDS011;39010;48.088;7.954;2022-07-23T02:45:21;10.90;;;8.85;;
53115;SDS011;39010;48.088;7.954;2022-07-23T02:47:48;13.80;;;9.25;;
53115;SDS011;39010;48.088;7.954;2022-07-23T02:50:15;13.55;;;9.30;;
53115;SDS011;39010;48.088;7.954;2022-07-23T02:52:42;10.93;;;9.18;;
53115;SDS011;39010;48.088;7.954;2022-07-23T02:55:09;13.52;;;9.70;;
53115;SDS011;39010;48.088;7.954;2022-07-23T02:57:37;11.30;;;8.45;;
53115;SDS011;39010;48.088;7.954;2022-07-23T03:00:04;11.75;;;8.77;;
53115;SDS011;39010;48.088;7.954;2022-07-23T03:02:32;10.82;;;8.73;;
53115;SDS011;39010;48.088;7.954;2022-07-23T03:04:59;13.30;;;9.93;;
53115;SDS011;39010;48.088;7.954;2022-07-23T03:07:26;12.25;;;9.50;;
53115;SDS011;39010;48.088;7.954;2022-07-23T03:09:52;12.15;;;9.25;;
53115;SDS011;39010;48.088;7.954;2022-07-23T03:12:19;13.98;;;9.82;;
53115;SDS011;39010;48.088;7.954;2022-07-23T03:14:45;11.65;;;9.40;;
53115;SDS011;39010;48.088;7.954;2022-07-23T03:17:12;11.90;;;8.75;;
53115;SDS011;39010;48.088;7.954;2022-07-23T03:19:38;12.70;;;8.95;;
53115;SDS011;39010;48.088;7.954;2022-07-23T03:22:07;13.00;;;9.40;;
53115;SDS011;39010;48.088;7.954;2022-07-23T03:24:34;14.00;;;8.98;;
53115;SDS011;39010;48.088;7.954;2022-07-23T03:27:22;14.40;;;10.27;;
53115;SDS011;39010;48.088;7.954;2022-07-23T03:29:51;13.73;;;9.68;;
53115;SDS011;39010;48.088;7.954;2022-07-23T03:32:19;14.30;;;9.65;;
53115;SDS011;39010;48.088;7.954;2022-07-23T03:34:46;11.88;;;9.15;;
53115;SDS011;39010;48.088;7.954;2022-07-23T03:37:13;12.15;;;9.63;;
53115;SDS011;39010;48.088;7.954;2022-07-23T03:39:42;13.85;;;9.45;;
53115;SDS011;39010;48.088;7.954;2022-07-23T03:42:08;11.23;;;9.63;;
53115;SDS011;39010;48.088;7.954;2022-07-23T03:44:35;12.35;;;9.00;;
53115;SDS011;39010;48.088;7.954;2022-07-23T03:47:05;14.75;;;10.43;;
53115;SDS011;39010;48.088;7.954;2022-07-23T03:49:32;9.93;;;8.77;;
53115;SDS011;39010;48.088;7.954;2022-07-23T03:51:59;13.65;;;9.70;;
53115;SDS011;39010;48.088;7.954;2022-07-23T03:54:26;12.25;;;8.60;;
53115;SDS011;39010;48.088;7.954;2022-07-23T03:56:52;11.27;;;8.77;;
53115;SDS011;39010;48.088;7.954;2022-07-23T03:59:19;11.60;;;9.52;;
53115;SDS011;39010;48.088;7.954;2022-07-23T04:01:49;13.15;;;9.15;;
53115;SDS011;39010;48.088;7.954;2022-07-23T04:04:16;10.93;;;9.00;;
53115;SDS011;39010;48.088;7.954;2022-07-23T04:06:43;11.55;;;8.82;;
53115;SDS011;39010;48.088;7.954;2022-07-23T04:09:10;10.52;;;8.68;;
53115;SDS011;39010;48.088;7.954;2022-07-23T04:11:37;11.45;;;8.48;;
53115;SDS011;39010;48.088;7.954;2022-07-23T04:14:03;12.57;;;8.80;;
53115;SDS011;39010;48.088;7.954;2022-07-23T04:16:30;10.60;;;8.35;;
53115;SDS011;39010;48.088;7.954;2022-07-23T04:18:57;10.82;;;8.85;;
53115;SDS011;39010;48.088;7.954;2022-07-23T04:21:28;12.05;;;9.35;;
53115;SDS011;39010;48.088;7.954;2022-07-23T04:23:54;10.60;;;8.55;;
53115;SDS011;39010;48.088;7.954;2022-07-23T04:26:21;11.75;;;8.45;;
53115;SDS011;39010;48.088;7.954;2022-07-23T04:28:47;9.98;;;8.52;;
53115;SDS011;39010;48.088;7.954;2022-07-23T04:31:15;12.13;;;9.25;;
53115;SDS011;39010;48.088;7.954;2022-07-23T04:33:42;10.32;;;8.75;;
53115;SDS011;39010;48.088;7.954;2022-07-23T04:36:08;11.20;;;8.50;;
53115;SDS011;39010;48.088;7.954;2022-07-23T04:38:35;12.68;;;9.30;;
53115;SDS011;39010;48.088;7.954;2022-07-23T04:41:02;10.65;;;8.93;;
53115;SDS011;39010;48.088;7.954;2022-07-23T04:43:29;10.35;;;7.93;;
53115;SDS011;39010;48.088;7.954;2022-07-23T04:45:56;11.18;;;9.00;;
53115;SDS011;39010;48.088;7.954;2022-07-23T04:50:56;11.13;;;8.80;;
53115;SDS011;39010;48.088;7.954;2022-07-23T04:53:26;10.63;;;8.60;;
53115;SDS011;39010;48.088;7.954;2022-07-23T04:55:56;12.77;;;8.30;;
53115;SDS011;39010;48.088;7.954;2022-07-23T04:58:22;13.15;;;9.00;;
53115;SDS011;39010;48.088;7.954;2022-07-23T05:00:49;10.95;;;8.20;;
53115;SDS011;39010;48.088;7.954;2022-07-23T05:03:16;9.98;;;8.07;;
53115;SDS011;39010;48.088;7.954;2022-07-23T07:16:07;14.38;;;10.45;;
53115;SDS011;39010;48.088;7.954;2022-07-23T07:18:34;10.80;;;9.45;;
53115;SDS011;39010;48.088;7.954;2022-07-23T07:21:00;11.90;;;9.55;;
53115;SDS011;39010;48.088;7.954;2022-07-23T07:23:27;12.57;;;9.80;;
53115;SDS011;39010;48.088;7.954;2022-07-23T07:25:53;11.82;;;9.63;;
53115;SDS011;39010;48.088;7.954;2022-07-23T07:28:19;12.73;;;9.90;;
53115;SDS011;39010;48.088;7.954;2022-07-23T07:30:46;13.15;;;9.85;;
53115;SDS011;39010;48.088;7.954;2022-07-23T07:33:12;12.65;;;10.20;;
53115;SDS011;39010;48.088;7.954;2022-07-23T07:35:39;14.85;;;10.07;;
53115;SDS011;39010;48.088;7.954;2022-07-23T07:38:05;13.50;;;10.23;;
53115;SDS011;39010;48.088;7.954;2022-07-23T07:40:32;12.50;;;10.02;;
53115;SDS011;39010;48.088;7.954;2022-07-23T07:43:00;12.85;;;9.20;;
53115;SDS011;39010;48.088;7.954;2022-07-23T07:45:27;13.27;;;9.57;;
53115;SDS011;39010;48.088;7.954;2022-07-23T07:47:54;11.40;;;8.52;;
53115;SDS011;39010;48.088;7.954;2022-07-23T07:50:21;11.05;;;8.50;;
53115;SDS011;39010;48.088;7.954;2022-07-23T07:52:48;12.68;;;8.48;;
53115;SDS011;39010;48.088;7.954;2022-07-23T07:55:14;11.70;;;8.60;;
53115;SDS011;39010;48.088;7.954;2022-07-23T07:57:43;10.75;;;8.32;;
53115;SDS011;39010;48.088;7.954;2022-07-23T08:00:14;10.48;;;8.35;;
53115;SDS011;39010;48.088;7.954;2022-07-23T08:05:24;8.82;;;7.47;;
53115;SDS011;39010;48.088;7.954;2022-07-23T08:07:54;12.48;;;8.00;;
53115;SDS011;39010;48.088;7.954;2022-07-23T08:10:22;10.45;;;7.80;;
53115;SDS011;39010;48.088;7.954;2022-07-23T08:12:51;9.30;;;7.10;;
53115;SDS011;39010;48.088;7.954;2022-07-23T08:15:23;9.23;;;7.13;;
53115;SDS011;39010;48.088;7.954;2022-07-23T08:17:51;8.45;;;6.65;;
53115;SDS011;39010;48.088;7.954;2022-07-23T08:20:19;8.60;;;6.55;;
53115;SDS011;39010;48.088;7.954;2022-07-23T08:22:50;9.90;;;6.60;;
53115;SDS011;39010;48.088;7.954;2022-07-23T08:25:23;8.38;;;6.93;;
53115;SDS011;39010;48.088;7.954;2022-07-23T08:27:51;10.02;;;6.85;;
53115;SDS011;39010;48.088;7.954;2022-07-23T08:30:18;9.13;;;7.10;;
53115;SDS011;39010;48.088;7.954;2022-07-23T08:32:49;10.48;;;7.18;;
53115;SDS011;39010;48.088;7.954;2022-07-23T08:35:18;10.45;;;6.75;;
53115;SDS011;39010;48.088;7.954;2022-07-23T08:37:48;9.45;;;7.15;;
53115;SDS011;39010;48.088;7.954;2022-07-23T08:53:06;10.88;;;7.13;;
53115;SDS011;39010;48.088;7.954;2022-07-23T08:55:34;8.73;;;6.90;;
53115;SDS011;39010;48.088;7.954;2022-07-23T08:58:01;8.50;;;6.60;;
53115;SDS011;39010;48.088;7.954;2022-07-23T09:00:28;9.90;;;7.13;;
53115;SDS011;39010;48.088;7.954;2022-07-23T09:02:55;9.65;;;7.47;;
53115;SDS011;39010;48.088;7.954;2022-07-23T09:05:22;9.38;;;7.25;;
53115;SDS011;39010;48.088;7.954;2022-07-23T09:10:52;9.48;;;7.55;;
53115;SDS011;39010;48.088;7.954;2022-07-23T09:13:41;9.55;;;7.40;;
53115;SDS011;39010;48.088;7.954;2022-07-23T09:16:20;10.13;;;6.80;;
53115;SDS011;39010;48.088;7.954;2022-07-23T09:18:52;9.50;;;7.47;;
53115;SDS011;39010;48.088;7.954;2022-07-23T09:23:56;11.98;;;7.32;;
53115;SDS011;39010;48.088;7.954;2022-07-23T09:26:34;9.18;;;7.20;;
53115;SDS011;39010;48.088;7.954;2022-07-23T09:29:03;9.52;;;6.75;;
53115;SDS011;39010;48.088;7.954;2022-07-23T09:34:17;9.55;;;6.78;;
53115;SDS011;39010;48.088;7.954;2022-07-23T09:36:46;10.05;;;6.85;;
53115;SDS011;39010;48.088;7.954;2022-07-23T09:39:14;10.88;;;6.70;;
53115;SDS011;39010;48.088;7.954;2022-07-23T09:41:47;11.65;;;7.25;;
53115;SDS011;39010;48.088;7.954;2022-07-23T09:44:15;9.95;;;6.55;;
53115;SDS011;39010;48.088;7.954;2022-07-23T09:46:47;10.20;;;6.78;;
53115;SDS011;39010;48.088;7.954;2022-07-23T09:49:16;9.77;;;7.30;;
53115;SDS011;39010;48.088;7.954;2022-07-23T09:51:45;12.82;;;7.13;;
53115;SDS011;39010;48.088;7.954;2022-07-23T09:54:24;9.45;;;7.63;;
53115;SDS011;39010;48.088;7.954;2022-07-23T09:56:54;10.15;;;6.88;;
53115;SDS011;39010;48.088;7.954;2022-07-23T09:59:22;10.25;;;7.05;;
53115;SDS011;39010;48.088;7.954;2022-07-23T10:01:53;10.07;;;7.03;;
53115;SDS011;39010;48.088;7.954;2022-07-23T10:04:23;9.52;;;7.22;;
53115;SDS011;39010;48.088;7.954;2022-07-23T10:07:10;7.75;;;6.88;;
53115;SDS011;39010;48.088;7.954;2022-07-23T10:09:57;8.82;;;6.75;;
53115;SDS011;39010;48.088;7.954;2022-07-23T10:12:31;9.10;;;6.38;;
53115;SDS011;39010;48.088;7.954;2022-07-23T10:15:17;9.05;;;7.10;;
53115;SDS011;39010;48.088;7.954;2022-07-23T10:17:44;9.45;;;6.65;;
53115;SDS011;39010;48.088;7.954;2022-07-23T10:20:10;9.70;;;6.72;;
53115;SDS011;39010;48.088;7.954;2022-07-23T10:22:38;8.15;;;6.53;;
53115;SDS011;39010;48.088;7.954;2022-07-23T10:33:59;7.68;;;6.13;;
53115;SDS011;39010;48.088;7.954;2022-07-23T10:36:47;8.60;;;6.15;;
53115;SDS011;39010;48.088;7.954;2022-07-23T10:39:26;9.45;;;6.38;;
53115;SDS011;39010;48.088;7.954;2022-07-23T10:42:07;8.73;;;5.75;;
53115;SDS011;39010;48.088;7.954;2022-07-23T10:44:39;7.85;;;6.47;;
53115;SDS011;39010;48.088;7.954;2022-07-23T10:47:10;7.80;;;6.00;;
53115;SDS011;39010;48.088;7.954;2022-07-23T10:49:43;8.15;;;6.00;;
53115;SDS011;39010;48.088;7.954;2022-07-23T10:52:15;7.32;;;5.88;;
53115;SDS011;39010;48.088;7.954;2022-07-23T10:54:55;8.32;;;6.40;;
53115;SDS011;39010;48.088;7.954;2022-07-23T10:57:48;8.90;;;6.50;;
53115;SDS011;39010;48.088;7.954;2022-07-23T11:00:20;8.32;;;6.65;;
53115;SDS011;39010;48.088;7.954;2022-07-23T11:02:55;8.80;;;6.70;;
53115;SDS011;39010;48.088;7.954;2022-07-23T11:05:26;8.52;;;6.70;;
53115;SDS011;39010;48.088;7.954;2022-07-23T11:10:38;7.80;;;6.05;;
53115;SDS011;39010;48.088;7.954;2022-07-23T11:24:15;9.00;;;6.90;;
53115;SDS011;39010;48.088;7.954;2022-07-23T11:26:47;8.85;;;7.15;;
53115;SDS011;39010;48.088;7.954;2022-07-23T11:32:24;7.88;;;6.50;;
53115;SDS011;39010;48.088;7.954;2022-07-23T11:34:51;8.75;;;6.82;;
53115;SDS011;39010;48.088;7.954;2022-07-23T11:37:31;9.55;;;6.32;;
53115;SDS011;39010;48.088;7.954;2022-07-23T11:40:04;7.88;;;6.25;;
53115;SDS011;39010;48.088;7.954;2022-07-23T11:42:34;10.48;;;7.28;;
53115;SDS011;39010;48.088;7.954;2022-07-23T11:45:01;8.50;;;6.80;;
53115;SDS011;39010;48.088;7.954;2022-07-23T11:47:29;9.70;;;6.80;;
53115;SDS011;39010;48.088;7.954;2022-07-23T11:49:56;8.57;;;6.45;;
53115;SDS011;39010;48.088;7.954;2022-07-23T11:52:25;9.07;;;6.63;;
53115;SDS011;39010;48.088;7.954;2022-07-23T11:54:54;8.13;;;6.60;;
53115;SDS011;39010;48.088;7.954;2022-07-23T11:57:23;9.82;;;6.47;;
53115;SDS011;39010;48.088;7.954;2022-07-23T11:59:53;9.98;;;6.45;;
53115;SDS011;39010;48.088;7.954;2022-07-23T12:02:22;9.20;;;6.85;;
53115;SDS011;39010;48.088;7.954;2022-07-23T12:04:50;8.30;;;6.68;;
53115;SDS011;39010;48.088;7.954;2022-07-23T12:09:53;9.90;;;6.50;;
53115;SDS011;39010;48.088;7.954;2022-07-23T12:12:21;9.63;;;6.47;;
53115;SDS011;39010;48.088;7.954;2022-07-23T12:14:51;10.15;;;6.88;;
53115;SDS011;39010;48.088;7.954;2022-07-23T12:17:29;9.40;;;6.75;;
53115;SDS011;39010;48.088;7.954;2022-07-23T12:19:57;9.15;;;7.07;;
53115;SDS011;39010;48.088;7.954;2022-07-23T12:22:26;8.57;;;6.63;;
53115;SDS011;39010;48.088;7.954;2022-07-23T12:25:00;7.97;;;6.70;;
53115;SDS011;39010;48.088;7.954;2022-07-23T12:27:30;7.22;;;6.50;;
53115;SDS011;39010;48.088;7.954;2022-07-23T12:29:57;9.43;;;6.55;;
53115;SDS011;39010;48.088;7.954;2022-07-23T12:32:25;7.97;;;6.63;;
53115;SDS011;39010;48.088;7.954;2022-07-23T12:35:06;8.65;;;7.10;;
53115;SDS011;39010;48.088;7.954;2022-07-23T12:37:35;8.63;;;6.57;;
53115;SDS011;39010;48.088;7.954;2022-07-23T12:45:22;9.05;;;6.65;;
53115;SDS011;39010;48.088;7.954;2022-07-23T12:47:57;7.70;;;6.32;;
53115;SDS011;39010;48.088;7.954;2022-07-23T12:50:33;8.07;;;6.80;;
53115;SDS011;39010;48.088;7.954;2022-07-23T12:53:11;8.45;;;6.70;;
53115;SDS011;39010;48.088;7.954;2022-07-23T12:55:49;7.55;;;6.00;;
53115;SDS011;39010;48.088;7.954;2022-07-23T12:58:44;8.02;;;6.85;;
53115;SDS011;39010;48.088;7.954;2022-07-23T13:06:55;8.13;;;6.50;;
53115;SDS011;39010;48.088;7.954;2022-07-23T13:09:26;8.70;;;7.20;;
53115;SDS011;39010;48.088;7.954;2022-07-23T13:11:58;7.65;;;6.80;;
53115;SDS011;39010;48.088;7.954;2022-07-23T13:14:25;9.95;;;7.10;;
53115;SDS011;39010;48.088;7.954;2022-07-23T13:16:54;9.02;;;7.32;;
53115;SDS011;39010;48.088;7.954;2022-07-23T13:19:22;8.73;;;7.18;;
53115;SDS011;39010;48.088;7.954;2022-07-23T13:21:51;10.90;;;7.65;;
53115;SDS011;39010;48.088;7.954;2022-07-23T13:24:18;8.30;;;7.25;;
53115;SDS011;39010;48.088;7.954;2022-07-23T13:26:45;8.95;;;7.15;;
53115;SDS011;39010;48.088;7.954;2022-07-23T13:29:13;9.25;;;7.93;;
53115;SDS011;39010;48.088;7.954;2022-07-23T13:31:42;8.55;;;7.40;;
53115;SDS011;39010;48.088;7.954;2022-07-23T13:34:11;10.38;;;7.22;;
53115;SDS011;39010;48.088;7.954;2022-07-23T13:36:38;10.50;;;7.50;;
53115;SDS011;39010;48.088;7.954;2022-07-23T13:39:05;9.20;;;7.18;;
53115;SDS011;39010;48.088;7.954;2022-07-23T13:41:35;8.75;;;6.75;;
53115;SDS011;39010;48.088;7.954;2022-07-23T13:44:03;9.23;;;7.50;;
53115;SDS011;39010;48.088;7.954;2022-07-23T13:46:29;9.13;;;6.90;;
53115;SDS011;39010;48.088;7.954;2022-07-23T13:48:56;7.82;;;6.90;;
53115;SDS011;39010;48.088;7.954;2022-07-23T13:51:23;8.65;;;7.40;;
53115;SDS011;39010;48.088;7.954;2022-07-23T13:53:51;9.10;;;7.13;;
53115;SDS011;39010;48.088;7.954;2022-07-23T13:56:18;9.13;;;7.30;;
53115;SDS011;39010;48.088;7.954;2022-07-23T13:58:45;8.52;;;7.32;;
53115;SDS011;39010;48.088;7.954;2022-07-23T14:01:12;9.35;;;7.32;;
53115;SDS011;39010;48.088;7.954;2022-07-23T14:03:39;9.82;;;6.88;;
53115;SDS011;39010;48.088;7.954;2022-07-23T14:06:06;9.10;;;7.10;;
53115;SDS011;39010;48.088;7.954;2022-07-23T14:08:42;8.48;;;7.57;;
53115;SDS011;39010;48.088;7.954;2022-07-23T14:21:51;10.05;;;7.80;;
53115;SDS011;39010;48.088;7.954;2022-07-23T14:24:18;9.13;;;6.78;;
53115;SDS011;39010;48.088;7.954;2022-07-23T14:26:47;9.90;;;7.25;;
53115;SDS011;39010;48.088;7.954;2022-07-23T14:29:13;9.80;;;7.38;;
53115;SDS011;39010;48.088;7.954;2022-07-23T14:31:40;8.63;;;7.28;;
53115;SDS011;39010;48.088;7.954;2022-07-23T14:34:07;9.68;;;7.15;;
53115;SDS011;39010;48.088;7.954;2022-07-23T14:36:33;9.52;;;7.70;;
53115;SDS011;39010;48.088;7.954;2022-07-23T14:39:00;10.15;;;6.97;;
53115;SDS011;39010;48.088;7.954;2022-07-23T14:41:28;8.32;;;6.90;;
53115;SDS011;39010;48.088;7.954;2022-07-23T14:43:55;10.10;;;6.88;;
53115;SDS011;39010;48.088;7.954;2022-07-23T14:46:22;8.95;;;7.10;;
53115;SDS011;39010;48.088;7.954;2022-07-23T14:48:49;7.95;;;6.85;;
53115;SDS011;39010;48.088;7.954;2022-07-23T14:51:15;8.32;;;7.25;;
53115;SDS011;39010;48.088;7.954;2022-07-23T14:53:44;9.60;;;7.50;;
53115;SDS011;39010;48.088;7.954;2022-07-23T14:56:11;9.77;;;6.80;;
53115;SDS011;39010;48.088;7.954;2022-07-23T14:58:40;9.60;;;7.03;;
53115;SDS011;39010;48.088;7.954;2022-07-23T15:01:08;8.32;;;6.30;;
53115;SDS011;39010;48.088;7.954;2022-07-23T15:03:34;9.35;;;7.38;;
53115;SDS011;39010;48.088;7.954;2022-07-23T15:06:08;10.07;;;7.40;;
53115;SDS011;39010;48.088;7.954;2022-07-23T15:08:35;10.15;;;7.38;;
53115;SDS011;39010;48.088;7.954;2022-07-23T15:11:01;9.38;;;7.32;;
53115;SDS011;39010;48.088;7.954;2022-07-23T15:13:28;8.57;;;6.78;;
53115;SDS011;39010;48.088;7.954;2022-07-23T15:15:54;9.38;;;7.53;;
53115;SDS011;39010;48.088;7.954;2022-07-23T15:18:22;8.60;;;6.45;;
53115;SDS011;39010;48.088;7.954;2022-07-23T15:20:48;10.82;;;6.97;;
53115;SDS011;39010;48.088;7.954;2022-07-23T15:23:15;8.10;;;6.53;;
53115;SDS011;39010;48.088;7.954;2022-07-23T15:25:42;9.93;;;7.05;;
53115;SDS011;39010;48.088;7.954;2022-07-23T15:28:16;9.30;;;7.13;;
53115;SDS011;39010;48.088;7.954;2022-07-23T15:30:46;8.45;;;7.05;;
53115;SDS011;39010;48.088;7.954;2022-07-23T15:33:15;9.52;;;7.03;;
53115;SDS011;39010;48.088;7.954;2022-07-23T15:35:46;8.57;;;6.75;;
53115;SDS011;39010;48.088;7.954;2022-07-23T15:38:13;8.57;;;6.78;;
53115;SDS011;39010;48.088;7.954;2022-07-23T15:40:50;8.77;;;6.85;;
53115;SDS011;39010;48.088;7.954;2022-07-23T15:43:17;12.68;;;7.45;;
53115;SDS011;39010;48.088;7.954;2022-07-23T15:45:45;8.88;;;6.95;;
53115;SDS011;39010;48.088;7.954;2022-07-23T15:48:12;9.23;;;6.93;;
53115;SDS011;39010;48.088;7.954;2022-07-23T15:50:38;10.18;;;6.68;;
53115;SDS011;39010;48.088;7.954;2022-07-23T15:53:11;8.05;;;7.10;;
53115;SDS011;39010;48.088;7.954;2022-07-23T15:55:41;10.23;;;7.47;;
53115;SDS011;39010;48.088;7.954;2022-07-23T15:58:11;10.10;;;6.95;;
53115;SDS011;39010;48.088;7.954;2022-07-23T16:00:39;8.02;;;6.90;;
53115;SDS011;39010;48.088;7.954;2022-07-23T16:03:08;8.65;;;6.60;;
53115;SDS011;39010;48.088;7.954;2022-07-23T16:05:35;8.38;;;6.60;;
53115;SDS011;39010;48.088;7.954;2022-07-23T16:08:03;8.82;;;7.30;;
53115;SDS011;39010;48.088;7.954;2022-07-23T16:10:30;8.98;;;7.15;;
53115;SDS011;39010;48.088;7.954;2022-07-23T16:12:57;7.30;;;6.45;;
53115;SDS011;39010;48.088;7.954;2022-07-23T16:15:23;7.90;;;7.07;;
53115;SDS011;39010;48.088;7.954;2022-07-23T16:17:50;10.00;;;6.88;;
53115;SDS011;39010;48.088;7.954;2022-07-23T16:20:17;7.72;;;6.57;;
53115;SDS011;39010;48.088;7.954;2022-07-23T16:22:43;7.22;;;6.40;;
53115;SDS011;39010;48.088;7.954;2022-07-23T16:25:10;8.20;;;6.97;;
53115;SDS011;39010;48.088;7.954;2022-07-23T16:27:37;8.95;;;7.03;;
53115;SDS011;39010;48.088;7.954;2022-07-23T16:30:05;11.20;;;7.15;;
53115;SDS011;39010;48.088;7.954;2022-07-23T16:32:33;8.52;;;6.68;;
53115;SDS011;39010;48.088;7.954;2022-07-23T16:35:00;9.23;;;6.70;;
53115;SDS011;39010;48.088;7.954;2022-07-23T16:37:32;7.78;;;6.75;;
53115;SDS011;39010;48.088;7.954;2022-07-23T16:39:59;11.30;;;7.03;;
53115;SDS011;39010;48.088;7.954;2022-07-23T16:42:25;8.80;;;6.88;;
53115;SDS011;39010;48.088;7.954;2022-07-23T16:44:54;10.07;;;6.95;;
53115;SDS011;39010;48.088;7.954;2022-07-23T16:47:21;10.60;;;7.30;;
53115;SDS011;39010;48.088;7.954;2022-07-23T16:49:48;9.63;;;7.38;;
53115;SDS011;39010;48.088;7.954;2022-07-23T16:52:14;8.20;;;6.82;;
53115;SDS011;39010;48.088;7.954;2022-07-23T16:54:41;7.82;;;6.32;;
53115;SDS011;39010;48.088;7.954;2022-07-23T16:57:08;7.80;;;6.70;;
53115;SDS011;39010;48.088;7.954;2022-07-23T16:59:34;9.00;;;6.72;;
53115;SDS011;39010;48.088;7.954;2022-07-23T17:02:01;8.60;;;7.15;;
53115;SDS011;39010;48.088;7.954;2022-07-23T17:04:28;9.45;;;7.10;;
53115;SDS011;39010;48.088;7.954;2022-07-23T17:06:55;9.50;;;6.22;;
53115;SDS011;39010;48.088;7.954;2022-07-23T17:09:23;9.45;;;6.97;;
53115;SDS011;39010;48.088;7.954;2022-07-23T17:11:49;7.80;;;6.57;;
53115;SDS011;39010;48.088;7.954;2022-07-23T17:14:16;10.13;;;7.32;;
53115;SDS011;39010;48.088;7.954;2022-07-23T17:16:42;8.38;;;6.80;;
53115;SDS011;39010;48.088;7.954;2022-07-23T17:19:09;8.40;;;6.43;;
53115;SDS011;39010;48.088;7.954;2022-07-23T17:21:36;9.60;;;6.93;;
53115;SDS011;39010;48.088;7.954;2022-07-23T17:24:02;10.43;;;7.22;;
53115;SDS011;39010;48.088;7.954;2022-07-23T17:26:36;8.55;;;7.03;;
53115;SDS011;39010;48.088;7.954;2022-07-23T17:29:03;9.60;;;6.85;;
53115;SDS011;39010;48.088;7.954;2022-07-23T17:31:30;8.18;;;6.72;;
53115;SDS011;39010;48.088;7.954;2022-07-23T17:33:57;7.85;;;7.05;;
53115;SDS011;39010;48.088;7.954;2022-07-23T17:36:25;9.77;;;7.00;;
53115;SDS011;39010;48.088;7.954;2022-07-23T17:38:52;8.88;;;6.95;;
53115;SDS011;39010;48.088;7.954;2022-07-23T17:41:19;8.27;;;6.93;;
53115;SDS011;39010;48.088;7.954;2022-07-23T17:43:45;8.27;;;6.75;;
53115;SDS011;39010;48.088;7.954;2022-07-23T17:46:12;12.05;;;7.00;;
53115;SDS011;39010;48.088;7.954;2022-07-23T17:48:39;9.23;;;6.50;;
53115;SDS011;39010;48.088;7.954;2022-07-23T17:51:07;10.48;;;7.10;;
53115;SDS011;39010;48.088;7.954;2022-07-23T17:53:34;7.80;;;6.80;;
53115;SDS011;39010;48.088;7.954;2022-07-23T17:56:00;9.65;;;7.20;;
53115;SDS011;39010;48.088;7.954;2022-07-23T17:58:29;10.50;;;7.20;;
53115;SDS011;39010;48.088;7.954;2022-07-23T18:00:56;8.77;;;7.40;;
53115;SDS011;39010;48.088;7.954;2022-07-23T18:03:23;12.73;;;7.07;;
53115;SDS011;39010;48.088;7.954;2022-07-23T18:05:50;8.48;;;7.07;;
53115;SDS011;39010;48.088;7.954;2022-07-23T18:08:17;8.93;;;7.00;;
53115;SDS011;39010;48.088;7.954;2022-07-23T18:10:43;9.73;;;7.20;;
53115;SDS011;39010;48.088;7.954;2022-07-23T18:13:10;9.32;;;7.38;;
53115;SDS011;39010;48.088;7.954;2022-07-23T18:15:37;9.15;;;7.10;;
53115;SDS011;39010;48.088;7.954;2022-07-23T18:18:03;8.50;;;7.25;;
53115;SDS011;39010;48.088;7.954;2022-07-23T18:20:30;8.68;;;7.15;;
53115;SDS011;39010;48.088;7.954;2022-07-23T18:23:03;9.15;;;6.95;;
53115;SDS011;39010;48.088;7.954;2022-07-23T18:25:29;9.85;;;7.20;;
53115;SDS011;39010;48.088;7.954;2022-07-23T18:27:56;8.77;;;6.78;;
53115;SDS011;39010;48.088;7.954;2022-07-23T18:30:22;9.43;;;6.68;;
53115;SDS011;39010;48.088;7.954;2022-07-23T18:32:53;10.05;;;6.90;;